createdAt,value
2022-10-11T00:00:42.681Z,9.2
2022-10-11T00:01:42.884Z,9.2
2022-10-11T00:02:42.932Z,9.28
2022-10-11T00:03:43.089Z,9.2
2022-10-11T00:04:43.235Z,9.28
2022-10-11T00:05:43.337Z,9.2
2022-10-11T00:06:43.441Z,9.2
2022-10-11T00:07:43.541Z,9.12
2022-10-11T00:08:43.691Z,9.2
2022-10-11T00:09:43.843Z,9.12
2022-10-11T00:10:43.993Z,9.2
2022-10-11T00:11:44.147Z,9.28
2022-10-11T00:12:44.248Z,9.28
2022-10-11T00:13:44.403Z,9.2
2022-10-11T00:14:44.570Z,9.28
2022-10-11T00:15:44.710Z,9.28
2022-10-11T00:16:44.856Z,9.36
2022-10-11T00:17:45.013Z,9.36
2022-10-11T00:18:45.160Z,9.52
2022-10-11T00:19:45.260Z,9.52
2022-10-11T00:20:45.362Z,9.52
2022-10-11T00:21:45.470Z,9.679999
2022-10-11T00:22:45.568Z,9.84
2022-10-11T00:23:45.719Z,9.84
2022-10-11T00:24:45.822Z,9.679999
2022-10-11T00:25:45.976Z,9.599999
2022-10-11T00:26:47.055Z,9.599999
2022-10-11T00:27:46.173Z,9.679999
2022-10-11T00:28:46.334Z,9.679999
2022-10-11T00:29:46.439Z,9.679999
2022-10-11T00:30:46.584Z,9.679999
2022-10-11T00:31:46.680Z,9.92
2022-10-11T00:32:46.835Z,9.92
2022-10-11T00:33:46.988Z,10
2022-10-11T00:34:47.137Z,10
2022-10-11T00:35:47.243Z,9.92
2022-10-11T00:36:47.398Z,9.84
2022-10-11T00:37:47.491Z,9.84
2022-10-11T00:38:47.644Z,9.92
2022-10-11T00:39:47.794Z,10
2022-10-11T00:40:47.951Z,9.92
2022-10-11T00:41:48.050Z,10
2022-10-11T00:42:48.152Z,10
2022-10-11T00:43:48.253Z,10
2022-10-11T00:44:48.408Z,9.92
2022-10-11T00:45:48.505Z,10
2022-10-11T00:46:48.609Z,10
2022-10-11T00:47:48.758Z,9.92
2022-10-11T00:48:48.864Z,10
2022-10-11T00:49:49.013Z,10
2022-10-11T00:50:49.112Z,10.08
2022-10-11T00:51:49.265Z,10.08
2022-10-11T00:52:49.371Z,10.24
2022-10-11T00:53:49.523Z,10.24
2022-10-11T00:54:49.674Z,10.08
2022-10-11T00:55:49.774Z,10.08
2022-10-11T00:56:49.880Z,10.24
2022-10-11T00:57:49.976Z,10.32
2022-10-11T00:58:50.079Z,10.24
2022-10-11T00:59:50.242Z,10.32
2022-10-11T01:00:50.571Z,10.24
2022-10-11T01:01:50.550Z,10.24
2022-10-11T01:02:50.640Z,10.32
2022-10-11T01:03:50.736Z,10.32
2022-10-11T01:05:01.151Z,10.48
2022-10-11T01:05:50.957Z,10.4
2022-10-11T01:06:51.047Z,10.32
2022-10-11T01:07:51.145Z,10.32
2022-10-11T01:08:51.297Z,10.32
2022-10-11T01:09:51.396Z,10.32
2022-10-11T01:10:51.554Z,10.32
2022-10-11T01:11:51.700Z,10.32
2022-10-11T01:12:51.812Z,10.32
2022-10-11T01:13:51.966Z,10.32
2022-10-11T01:14:52.118Z,10.32
2022-10-11T01:15:52.269Z,10.32
2022-10-11T01:16:52.495Z,10.32
2022-10-11T01:17:52.583Z,10.32
2022-10-11T01:18:52.826Z,10.32
2022-10-11T01:19:52.827Z,10.32
2022-10-11T01:20:52.969Z,10.4
2022-10-11T01:21:53.129Z,10.4
2022-10-11T01:22:53.271Z,10.4
2022-10-11T01:23:53.371Z,10.4
2022-10-11T01:24:53.475Z,10.4
2022-10-11T01:25:53.574Z,10.4
2022-10-11T01:26:53.725Z,10.32
2022-10-11T01:27:53.881Z,10.32
2022-10-11T01:28:54.028Z,10.4
2022-10-11T01:29:54.092Z,10.4
2022-10-11T01:30:54.234Z,10.4
2022-10-11T01:31:54.385Z,10.4
2022-10-11T01:32:54.495Z,10.4
2022-10-11T01:33:54.598Z,10.4
2022-10-11T01:34:54.820Z,10.4
2022-10-11T01:35:54.896Z,10.4
2022-10-11T01:36:55.042Z,10.48
2022-10-11T01:37:55.148Z,10.4
2022-10-11T01:38:55.258Z,10.48
2022-10-11T01:39:55.398Z,10.48
2022-10-11T01:40:55.550Z,10.48
2022-10-11T01:41:55.653Z,10.639999
2022-10-11T01:42:55.755Z,10.639999
2022-10-11T01:43:55.866Z,10.48
2022-10-11T01:44:56.027Z,10.639999
2022-10-11T01:45:56.109Z,10.639999
2022-10-11T01:46:56.210Z,10.719999
2022-10-11T01:47:56.314Z,10.719999
2022-10-11T01:48:56.465Z,10.8
2022-10-11T01:49:56.565Z,10.88
2022-10-11T01:50:56.717Z,11.04
2022-10-11T01:51:56.820Z,10.88
2022-10-11T01:52:56.974Z,11.04
2022-10-11T01:53:57.137Z,11.12
2022-10-11T01:55:08.998Z,11.04
2022-10-11T01:55:57.339Z,11.12
2022-10-11T01:56:57.479Z,11.04
2022-10-11T01:57:57.579Z,11.12
2022-10-11T01:58:57.682Z,11.04
2022-10-11T01:59:57.793Z,11.12
2022-10-11T02:00:57.982Z,11.12
2022-10-11T02:01:58.087Z,11.12
2022-10-11T02:02:58.089Z,11.12
2022-10-11T02:03:58.244Z,11.2
2022-10-11T02:04:58.343Z,11.2
2022-10-11T02:05:58.492Z,11.2
2022-10-11T02:06:58.594Z,11.12
2022-10-11T02:07:58.744Z,11.12
2022-10-11T02:08:58.848Z,11.12
2022-10-11T02:09:59.000Z,11.12
2022-10-11T02:10:59.100Z,11.04
2022-10-11T02:11:59.199Z,11.04
2022-10-11T02:12:59.304Z,11.04
2022-10-11T02:13:59.458Z,11.04
2022-10-11T02:14:59.621Z,11.04
2022-10-11T02:15:59.763Z,11.04
2022-10-11T02:16:59.862Z,11.04
2022-10-11T02:17:59.966Z,11.12
2022-10-11T02:19:00.082Z,11.28
2022-10-11T02:20:00.219Z,11.2
2022-10-11T02:21:00.366Z,11.2
2022-10-11T02:22:00.529Z,11.28
2022-10-11T02:23:01.052Z,11.28
2022-10-11T02:24:00.824Z,11.2
2022-10-11T02:25:00.956Z,11.2
2022-10-11T02:26:01.103Z,11.2
2022-10-11T02:27:01.183Z,11.2
2022-10-11T02:28:01.281Z,11.2
2022-10-11T02:29:01.432Z,11.2
2022-10-11T02:30:01.560Z,11.12
2022-10-11T02:31:01.685Z,11.2
2022-10-11T02:32:01.875Z,11.2
2022-10-11T02:33:01.999Z,11.2
2022-10-11T02:34:02.050Z,11.28
2022-10-11T02:35:02.148Z,11.52
2022-10-11T02:36:02.544Z,11.28
2022-10-11T02:37:02.449Z,11.44
2022-10-11T02:38:02.597Z,11.2
2022-10-11T02:39:02.746Z,11.2
2022-10-11T02:40:02.885Z,11.2
2022-10-11T02:41:03.012Z,11.28
2022-10-11T02:42:03.106Z,11.12
2022-10-11T02:43:03.255Z,11.2
2022-10-11T02:44:03.413Z,11.12
2022-10-11T02:45:03.513Z,11.2
2022-10-11T02:46:03.918Z,11.12
2022-10-11T02:47:03.763Z,11.12
2022-10-11T02:48:03.862Z,11.12
2022-10-11T02:49:03.965Z,11.12
2022-10-11T02:50:04.070Z,11.2
2022-10-11T02:51:04.169Z,11.2
2022-10-11T02:52:04.272Z,11.2
2022-10-11T02:53:04.429Z,11.2
2022-10-11T02:54:04.529Z,11.12
2022-10-11T02:55:04.633Z,11.04
2022-10-11T02:56:05.150Z,11.12
2022-10-11T02:57:04.886Z,11.04
2022-10-11T02:58:05.064Z,11.12
2022-10-11T02:59:05.185Z,11.12
2022-10-11T03:00:05.348Z,11.12
2022-10-11T03:01:05.489Z,11.04
2022-10-11T03:02:05.728Z,11.04
2022-10-11T03:03:05.744Z,11.12
2022-10-11T03:04:05.892Z,11.2
2022-10-11T03:05:06.041Z,11.2
2022-10-11T03:06:06.429Z,11.12
2022-10-11T03:07:06.245Z,11.2
2022-10-11T03:08:06.400Z,11.12
2022-10-11T03:09:06.547Z,11.12
2022-10-11T03:10:06.651Z,11.04
2022-10-11T03:11:06.755Z,11.04
2022-10-11T03:12:06.913Z,11.04
2022-10-11T03:13:07.008Z,11.04
2022-10-11T03:14:07.168Z,11.04
2022-10-11T03:15:07.262Z,11.04
2022-10-11T03:16:07.535Z,11.04
2022-10-11T03:17:24.037Z,10.88
2022-10-11T03:18:07.674Z,11.04
2022-10-11T03:19:07.816Z,10.88
2022-10-11T03:20:08.504Z,10.88
2022-10-11T03:21:08.077Z,11.04
2022-10-11T03:22:08.225Z,10.88
2022-10-11T03:23:08.390Z,10.88
2022-10-11T03:24:09.052Z,11.04
2022-10-11T03:25:08.629Z,10.88
2022-10-11T03:26:09.169Z,10.88
2022-10-11T03:27:08.886Z,10.88
2022-10-11T03:28:09.136Z,10.88
2022-10-11T03:29:09.144Z,11.04
2022-10-11T03:30:09.375Z,10.88
2022-10-11T03:31:09.615Z,10.88
2022-10-11T03:32:09.692Z,10.88
2022-10-11T03:33:09.843Z,10.88
2022-10-11T03:34:10.552Z,10.88
2022-10-11T03:35:10.142Z,10.88
2022-10-11T03:36:10.944Z,10.8
2022-10-11T03:37:10.450Z,10.88
2022-10-11T03:38:12.942Z,10.8
2022-10-11T03:39:10.704Z,10.8
2022-10-11T03:40:10.806Z,10.8
2022-10-11T03:41:10.960Z,10.88
2022-10-11T03:42:11.060Z,10.8
2022-10-11T03:43:11.167Z,10.88
2022-10-11T03:44:11.313Z,10.8
2022-10-11T03:45:11.418Z,10.8
2022-10-11T03:46:11.569Z,10.8
2022-10-11T03:47:11.719Z,10.719999
2022-10-11T03:48:11.831Z,10.719999
2022-10-11T03:49:11.972Z,10.639999
2022-10-11T03:50:12.072Z,10.639999
2022-10-11T03:51:12.173Z,10.639999
2022-10-11T03:52:12.321Z,10.48
2022-10-11T03:53:12.426Z,10.639999
2022-10-11T03:54:12.578Z,10.48
2022-10-11T03:55:12.729Z,10.48
2022-10-11T03:56:13.027Z,10.639999
2022-10-11T03:57:13.037Z,10.719999
2022-10-11T03:58:13.184Z,10.639999
2022-10-11T03:59:13.286Z,10.48
2022-10-11T04:00:13.454Z,10.48
2022-10-11T04:01:13.588Z,10.4
2022-10-11T04:02:13.736Z,10.4
2022-10-11T04:03:13.794Z,10.4
2022-10-11T04:04:13.944Z,10.4
2022-10-11T04:05:14.050Z,10.4
2022-10-11T04:06:14.265Z,10.4
2022-10-11T04:07:14.353Z,10.4
2022-10-11T04:08:14.500Z,10.4
2022-10-11T04:09:14.604Z,10.4
2022-10-11T04:10:14.754Z,10.4
2022-10-11T04:11:14.906Z,10.32
2022-10-11T04:12:15.061Z,10.32
2022-10-11T04:13:15.157Z,10.32
2022-10-11T04:14:15.261Z,10.4
2022-10-11T04:15:15.433Z,10.4
2022-10-11T04:16:15.565Z,10.32
2022-10-11T04:17:15.680Z,10.32
2022-10-11T04:18:15.768Z,10.32
2022-10-11T04:19:15.918Z,10.32
2022-10-11T04:20:16.023Z,10.32
2022-10-11T04:21:16.125Z,10.32
2022-10-11T04:22:16.247Z,10.32
2022-10-11T04:23:16.430Z,10.32
2022-10-11T04:24:16.531Z,10.32
2022-10-11T04:25:16.631Z,10.32
2022-10-11T04:26:16.740Z,10.32
2022-10-11T04:27:16.883Z,10.32
2022-10-11T04:28:17.050Z,10.24
2022-10-11T04:29:17.140Z,10.32
2022-10-11T04:30:17.248Z,10.24
2022-10-11T04:31:17.392Z,10.24
2022-10-11T04:32:17.490Z,10.24
2022-10-11T04:33:17.597Z,10.32
2022-10-11T04:34:17.698Z,10.24
2022-10-11T04:35:17.848Z,10.08
2022-10-11T04:36:17.957Z,10.24
2022-10-11T04:37:18.103Z,10.24
2022-10-11T04:38:18.204Z,10.32
2022-10-11T04:39:18.303Z,10.08
2022-10-11T04:40:18.460Z,10.08
2022-10-11T04:41:18.559Z,10.08
2022-10-11T04:42:18.672Z,10.32
2022-10-11T04:43:18.760Z,10.24
2022-10-11T04:44:18.911Z,10
2022-10-11T04:45:19.037Z,10.24
2022-10-11T04:46:19.175Z,10.24
2022-10-11T04:47:19.317Z,10.24
2022-10-11T04:48:19.423Z,10
2022-10-11T04:49:19.569Z,10
2022-10-11T04:50:19.725Z,10
2022-10-11T04:51:19.831Z,9.92
2022-10-11T04:52:23.386Z,9.92
2022-10-11T04:53:20.092Z,9.92
2022-10-11T04:54:20.184Z,9.92
2022-10-11T04:55:20.331Z,9.92
2022-10-11T04:56:20.437Z,9.92
2022-10-11T04:57:20.541Z,9.92
2022-10-11T04:58:20.634Z,9.84
2022-10-11T04:59:20.789Z,9.84
2022-10-11T05:00:20.948Z,9.84
2022-10-11T05:01:21.089Z,9.679999
2022-10-11T05:02:21.250Z,9.679999
2022-10-11T05:03:21.296Z,9.679999
2022-10-11T05:04:21.452Z,9.679999
2022-10-11T05:05:21.558Z,9.679999
2022-10-11T05:06:21.654Z,9.84
2022-10-11T05:07:21.831Z,9.84
2022-10-11T05:08:21.957Z,9.679999
2022-10-11T05:09:22.105Z,9.679999
2022-10-11T05:10:22.205Z,9.599999
2022-10-11T05:11:22.309Z,9.599999
2022-10-11T05:12:22.419Z,9.599999
2022-10-11T05:13:22.510Z,9.599999
2022-10-11T05:14:22.664Z,9.52
2022-10-11T05:15:22.775Z,9.36
2022-10-11T05:16:22.918Z,9.52
2022-10-11T05:17:23.069Z,9.52
2022-10-11T05:18:23.174Z,9.52
2022-10-11T05:19:23.325Z,9.36
2022-10-11T05:20:23.425Z,9.36
2022-10-11T05:21:23.575Z,9.52
2022-10-11T05:22:23.677Z,9.52
2022-10-11T05:23:23.857Z,9.52
2022-10-11T05:24:23.984Z,9.52
2022-10-11T05:25:24.085Z,9.52
2022-10-11T05:26:24.236Z,9.52
2022-10-11T05:27:24.384Z,9.36
2022-10-11T05:28:24.639Z,9.28
2022-10-11T05:29:24.591Z,9.36
2022-10-11T05:30:24.696Z,9.28
2022-10-11T05:31:24.847Z,9.28
2022-10-11T05:32:27.813Z,9.28
2022-10-11T05:33:25.152Z,9.28
2022-10-11T05:34:25.302Z,9.2
2022-10-11T05:35:25.400Z,9.28
2022-10-11T05:36:25.504Z,9.28
2022-10-11T05:37:25.604Z,9.2
2022-10-11T05:38:25.717Z,9.12
2022-10-11T05:39:25.808Z,9.12
2022-10-11T05:40:25.921Z,9.12
2022-10-11T05:41:26.060Z,9.2
2022-10-11T05:42:26.212Z,9.12
2022-10-11T05:43:26.314Z,8.88
2022-10-11T05:44:26.419Z,8.88
2022-10-11T05:45:26.578Z,8.72
2022-10-11T05:46:26.725Z,8.8
2022-10-11T05:47:26.870Z,8.72
2022-10-11T05:48:26.980Z,8.639999
2022-10-11T05:49:27.124Z,8.72
2022-10-11T05:50:27.279Z,8.8
2022-10-11T05:51:27.376Z,8.72
2022-10-11T05:52:27.544Z,8.72
2022-10-11T05:53:27.631Z,8.639999
2022-10-11T05:54:27.786Z,8.48
2022-10-11T05:55:27.890Z,8.48
2022-10-11T05:56:27.986Z,8.4
2022-10-11T05:57:28.090Z,8.32
2022-10-11T05:58:28.188Z,8.32
2022-10-11T05:59:28.293Z,8.32
2022-10-11T06:00:28.445Z,8.32
2022-10-11T06:01:28.598Z,8.32
2022-10-11T06:02:28.697Z,8.24
2022-10-11T06:03:28.852Z,8.32
2022-10-11T06:04:29.008Z,8.72
2022-10-11T06:05:29.155Z,8.639999
2022-10-11T06:06:29.222Z,8.48
2022-10-11T06:07:29.407Z,8.4
2022-10-11T06:08:29.514Z,8.32
2022-10-11T06:09:29.607Z,8.32
2022-10-11T06:10:29.762Z,8.32
2022-10-11T06:11:29.860Z,8.32
2022-10-11T06:12:30.012Z,8.4
2022-10-11T06:13:30.123Z,8.4
2022-10-11T06:14:30.223Z,8.48
2022-10-11T06:15:30.373Z,8.48
2022-10-11T06:16:30.521Z,8.639999
2022-10-11T06:17:30.674Z,9.04
2022-10-11T06:18:30.774Z,8.88
2022-10-11T06:19:30.925Z,8.8
2022-10-11T06:20:31.030Z,8.8
2022-10-11T06:21:31.130Z,9.04
2022-10-11T06:22:31.243Z,9.12
2022-10-11T06:23:31.382Z,9.84
2022-10-11T06:24:31.550Z,11.2
2022-10-11T06:25:31.637Z,11.84
2022-10-11T06:26:31.745Z,12.639999
2022-10-11T06:27:31.893Z,13.04
2022-10-11T06:28:32.092Z,13.44
2022-10-11T06:29:32.143Z,13.599999
2022-10-11T06:30:32.256Z,13.52
2022-10-11T06:31:32.394Z,13.28
2022-10-11T06:32:32.500Z,13.52
2022-10-11T06:33:32.712Z,13.44
2022-10-11T06:34:32.800Z,13.599999
2022-10-11T06:35:32.962Z,13.52
2022-10-11T06:36:33.057Z,13.599999
2022-10-11T06:37:33.158Z,13.92
2022-10-11T06:38:33.308Z,14.639999
2022-10-11T06:39:33.515Z,15.2
2022-10-11T06:40:33.564Z,15.679999
2022-10-11T06:41:33.718Z,15.599999
2022-10-11T06:42:33.834Z,14.4
2022-10-11T06:43:33.988Z,14.719999
2022-10-11T06:44:34.121Z,14.88
2022-10-11T06:45:34.281Z,15.44
2022-10-11T06:46:34.427Z,15.679999
2022-10-11T06:47:34.525Z,15.92
2022-10-11T06:48:34.624Z,16.24
2022-10-11T06:49:34.785Z,16.4
2022-10-11T06:50:47.479Z,16.08
2022-10-11T06:51:35.047Z,15.28
2022-10-11T06:52:35.181Z,16.24
2022-10-11T06:53:35.286Z,16.48
2022-10-11T06:54:35.385Z,16.32
2022-10-11T06:55:35.489Z,15.92
2022-10-11T06:56:35.638Z,15.2
2022-10-11T06:57:35.790Z,14.639999
2022-10-11T06:58:35.943Z,13.92
2022-10-11T06:59:36.044Z,14.719999
2022-10-11T07:00:36.219Z,16.24
2022-10-11T07:01:36.401Z,15.839999
2022-10-11T07:02:36.507Z,14.639999
2022-10-11T07:03:36.613Z,14.719999
2022-10-11T07:04:37.105Z,14.719999
2022-10-11T07:05:36.858Z,14.48
2022-10-11T07:06:36.960Z,14.799999
2022-10-11T07:07:37.060Z,14.4
2022-10-11T07:08:37.212Z,14.08
2022-10-11T07:09:37.313Z,14.24
2022-10-11T07:10:37.432Z,13.599999
2022-10-11T07:11:37.564Z,12.4
2022-10-11T07:12:37.716Z,12.4
2022-10-11T07:13:37.824Z,12.4
2022-10-11T07:14:37.969Z,12.48
2022-10-11T07:15:38.101Z,12.24
2022-10-11T07:16:38.228Z,12.08
2022-10-11T07:17:38.376Z,12.08
2022-10-11T07:18:38.485Z,12.24
2022-10-11T07:19:38.629Z,11.84
2022-10-11T07:20:38.737Z,11.599999
2022-10-11T07:21:38.832Z,11.44
2022-10-11T07:22:38.937Z,12.639999
2022-10-11T07:23:39.060Z,12.4
2022-10-11T07:24:39.141Z,11.84
2022-10-11T07:25:39.288Z,11.04
2022-10-11T07:26:39.484Z,12.88
2022-10-11T07:27:39.591Z,14.48
2022-10-11T07:28:39.796Z,15.04
2022-10-11T07:29:39.806Z,16.08
2022-10-11T07:30:39.951Z,15.839999
2022-10-11T07:31:40.061Z,15.04
2022-10-11T07:32:40.341Z,15.44
2022-10-11T07:33:40.309Z,16.88
2022-10-11T07:34:40.434Z,17.76
2022-10-11T07:35:42.840Z,14.799999
2022-10-11T07:36:40.710Z,14.719999
2022-10-11T07:37:40.810Z,15.2
2022-10-11T07:38:40.914Z,16.48
2022-10-11T07:39:41.013Z,16.08
2022-10-11T07:40:41.120Z,16.8
2022-10-11T07:41:45.588Z,16.64
2022-10-11T07:42:41.382Z,16.88
2022-10-11T07:43:41.546Z,15.52
2022-10-11T07:44:41.625Z,14.88
2022-10-11T07:45:41.777Z,13.679999
2022-10-11T07:46:41.874Z,15.2
2022-10-11T07:47:42.036Z,16.4
2022-10-11T07:48:42.148Z,15.679999
2022-10-11T07:49:42.279Z,15.44
2022-10-11T07:50:42.431Z,14.639999
2022-10-11T07:51:42.541Z,14.24
2022-10-11T07:52:42.690Z,14.639999
2022-10-11T07:53:42.795Z,14
2022-10-11T07:54:42.929Z,13.44
2022-10-11T07:55:42.995Z,13.28
2022-10-11T07:56:43.094Z,13.84
2022-10-11T07:57:43.260Z,13.52
2022-10-11T07:58:43.352Z,13.52
2022-10-11T07:59:46.733Z,13.2
2022-10-11T08:00:43.629Z,12.719999
2022-10-11T08:01:43.731Z,13.2
2022-10-11T08:02:43.860Z,13.44
2022-10-11T08:03:44.010Z,13.28
2022-10-11T08:04:44.106Z,12.639999
2022-10-11T08:05:44.209Z,12.48
2022-10-11T08:06:44.353Z,12
2022-10-11T08:07:44.503Z,12.24
2022-10-11T08:08:44.613Z,12.32
2022-10-11T08:09:44.715Z,12.08
2022-10-11T08:10:44.821Z,11.84
2022-10-11T08:11:44.971Z,11.44
2022-10-11T08:12:45.079Z,11.84
2022-10-11T08:13:45.172Z,12.639999
2022-10-11T08:14:45.290Z,13.679999
2022-10-11T08:15:45.380Z,13.679999
2022-10-11T08:16:45.537Z,13.92
2022-10-11T08:17:45.628Z,14
2022-10-11T08:18:45.731Z,14.08
2022-10-11T08:19:45.888Z,13.92
2022-10-11T08:20:45.984Z,13.52
2022-10-11T08:21:46.091Z,12.88
2022-10-11T08:22:46.240Z,12.639999
2022-10-11T08:23:46.392Z,12.4
2022-10-11T08:24:46.547Z,12.32
2022-10-11T08:25:46.695Z,12.08
2022-10-11T08:26:46.849Z,12
2022-10-11T08:27:47.000Z,11.92
2022-10-11T08:28:47.159Z,11.52
2022-10-11T08:29:47.262Z,11.44
2022-10-11T08:30:47.404Z,11.599999
2022-10-11T08:31:47.502Z,11.679999
2022-10-11T08:32:47.624Z,11.52
2022-10-11T08:33:47.762Z,11.44
2022-10-11T08:34:47.867Z,11.84
2022-10-11T08:35:48.051Z,11.52
2022-10-11T08:36:48.165Z,11.44
2022-10-11T08:37:48.309Z,11.44
2022-10-11T08:38:48.472Z,12
2022-10-11T08:39:48.621Z,12.08
2022-10-11T08:40:48.730Z,12.24
2022-10-11T08:41:48.824Z,12
2022-10-11T08:42:48.979Z,12.08
2022-10-11T08:43:49.126Z,12.08
2022-10-11T08:45:09.893Z,12.24
2022-10-11T08:45:49.433Z,13.679999
2022-10-11T08:46:49.534Z,15.04
2022-10-11T08:47:49.682Z,16.32
2022-10-11T08:48:49.831Z,17.04
2022-10-11T08:49:49.934Z,17.76
2022-10-11T08:50:50.098Z,18.8
2022-10-11T08:51:50.247Z,19.76
2022-10-11T08:52:50.388Z,19.52
2022-10-11T08:53:50.540Z,18.08
2022-10-11T08:54:50.896Z,17.2
2022-10-11T08:55:50.800Z,19.12
2022-10-11T08:56:50.946Z,19.76
2022-10-11T08:57:51.056Z,20.08
2022-10-11T08:58:51.148Z,18.88
2022-10-11T08:59:51.266Z,19.04
2022-10-11T09:00:51.414Z,18.72
2022-10-11T09:01:51.596Z,20
2022-10-11T09:03:07.359Z,19.04
2022-10-11T09:03:51.762Z,19.52
2022-10-11T09:04:51.908Z,19.6
2022-10-11T09:05:52.061Z,19.12
2022-10-11T09:06:52.216Z,19.6
2022-10-11T09:07:53.091Z,19.04
2022-10-11T09:08:52.521Z,20.8
2022-10-11T09:09:53.221Z,20.72
2022-10-11T09:10:52.827Z,21.28
2022-10-11T09:11:53.498Z,23.04
2022-10-11T09:12:53.077Z,23.28
2022-10-11T09:13:53.241Z,23.12
2022-10-11T09:14:53.315Z,22.72
2022-10-11T09:15:53.430Z,22
2022-10-11T09:16:53.534Z,21.44
2022-10-11T09:17:53.686Z,20.64
2022-10-11T09:18:53.861Z,19.28
2022-10-11T09:19:53.982Z,17.04
2022-10-11T09:20:54.086Z,16.72
2022-10-11T09:21:54.240Z,17.68
2022-10-11T09:22:54.340Z,17.2
2022-10-11T09:23:54.489Z,15.92
2022-10-11T09:24:54.598Z,15.12
2022-10-11T09:25:54.753Z,15.2
2022-10-11T09:26:54.853Z,16
2022-10-11T09:28:02.637Z,17.44
2022-10-11T09:28:58.668Z,17.68
2022-10-11T09:29:55.654Z,18.32
2022-10-11T09:30:55.415Z,18.72
2022-10-11T09:31:55.566Z,19.92
2022-10-11T09:32:55.670Z,19.76
2022-10-11T09:33:55.817Z,20.64
2022-10-11T09:34:55.972Z,21.28
2022-10-11T09:35:56.564Z,20.64
2022-10-11T09:36:56.280Z,21.12
2022-10-11T09:37:56.815Z,22.4
2022-10-11T09:38:56.523Z,22
2022-10-11T09:39:56.621Z,23.2
2022-10-11T09:40:56.773Z,23.2
2022-10-11T09:41:56.930Z,23.44
2022-10-11T09:42:57.074Z,22.48
2022-10-11T09:43:57.185Z,20.08
2022-10-11T09:44:57.333Z,19.52
2022-10-11T09:45:57.487Z,19.44
2022-10-11T09:46:57.588Z,18.8
2022-10-11T09:47:57.687Z,18
2022-10-11T09:48:57.803Z,16.8
2022-10-11T09:49:57.965Z,16.72
2022-10-11T09:50:58.099Z,17.2
2022-10-11T09:51:58.197Z,17.6
2022-10-11T09:52:58.342Z,17.52
2022-10-11T09:53:58.453Z,17.12
2022-10-11T09:54:58.548Z,17.04
2022-10-11T09:55:58.722Z,17.92
2022-10-11T09:56:58.851Z,19.6
2022-10-11T09:57:58.953Z,18.32
2022-10-11T09:58:59.105Z,19.04
2022-10-11T09:59:59.216Z,19.28
2022-10-11T10:01:01.806Z,19.2
2022-10-11T10:01:59.539Z,19.44
2022-10-11T10:02:59.557Z,20.4
2022-10-11T10:03:59.662Z,20.88
2022-10-11T10:04:59.762Z,20.48
2022-10-11T10:05:59.921Z,22.4
2022-10-11T10:07:00.075Z,22
2022-10-11T10:08:04.209Z,22
2022-10-11T10:09:00.289Z,21.92
2022-10-11T10:10:00.421Z,21.84
2022-10-11T10:11:00.525Z,22.4
2022-10-11T10:12:00.649Z,22.72
2022-10-11T10:13:00.777Z,23.12
2022-10-11T10:14:00.883Z,20.24
2022-10-11T10:15:01.055Z,19.6
2022-10-11T10:16:01.192Z,18.8
2022-10-11T10:17:01.285Z,17.68
2022-10-11T10:18:01.435Z,16.64
2022-10-11T10:19:01.536Z,16.4
2022-10-11T10:20:01.640Z,16.4
2022-10-11T10:21:01.739Z,15.92
2022-10-11T10:22:01.846Z,16
2022-10-11T10:23:01.993Z,15.52
2022-10-11T10:24:02.093Z,15.44
2022-10-11T10:25:02.199Z,15.599999
2022-10-11T10:26:02.574Z,15.599999
2022-10-11T10:27:02.400Z,15.599999
2022-10-11T10:28:02.515Z,17.2
2022-10-11T10:29:02.613Z,18.88
2022-10-11T10:30:02.811Z,20
2022-10-11T10:31:02.913Z,19.76
2022-10-11T10:32:13.734Z,20.08
2022-10-11T10:33:03.130Z,21.44
2022-10-11T10:34:03.217Z,21.84
2022-10-11T10:35:03.312Z,21.44
2022-10-11T10:36:03.872Z,20.48
2022-10-11T10:37:03.578Z,20.4
2022-10-11T10:38:03.670Z,19.92
2022-10-11T10:39:03.822Z,20.24
2022-10-11T10:40:03.930Z,18.8
2022-10-11T10:41:04.025Z,17.68
2022-10-11T10:42:04.181Z,17.12
2022-10-11T10:43:04.278Z,17.2
2022-10-11T10:44:04.429Z,16.64
2022-10-11T10:45:07.295Z,16.24
2022-10-11T10:46:05.057Z,16.24
2022-10-11T10:47:04.901Z,17.44
2022-10-11T10:48:04.995Z,18.32
2022-10-11T10:49:34.738Z,20
2022-10-11T10:50:05.241Z,20.64
2022-10-11T10:51:09.702Z,19.28
2022-10-11T10:52:05.502Z,19.52
2022-10-11T10:53:05.597Z,20.48
2022-10-11T10:54:05.747Z,21.68
2022-10-11T10:55:05.848Z,20.24
2022-10-11T10:56:06.294Z,20.64
2022-10-11T10:57:06.109Z,20.72
2022-10-11T10:58:06.257Z,20.4
2022-10-11T10:59:06.352Z,21.12
2022-10-11T11:00:06.521Z,19.68
2022-10-11T11:01:06.665Z,21.28
2022-10-11T11:02:21.656Z,22
2022-10-11T11:03:06.885Z,21.6
2022-10-11T11:04:06.966Z,21.28
2022-10-11T11:05:07.065Z,21.92
2022-10-11T11:06:07.409Z,21.28
2022-10-11T11:07:07.326Z,23.2
2022-10-11T11:08:07.474Z,23.28
2022-10-11T11:09:07.625Z,24.88
2022-10-11T11:10:07.776Z,23.84
2022-10-11T11:11:07.928Z,23.6
2022-10-11T11:12:08.026Z,24.72
2022-10-11T11:13:08.126Z,22.88
2022-10-11T11:14:08.230Z,22
2022-10-11T11:15:08.358Z,20.72
2022-10-11T11:16:08.603Z,20.24
2022-10-11T11:17:08.586Z,18.32
2022-10-11T11:18:08.747Z,17.76
2022-10-11T11:19:08.848Z,16.8
2022-10-11T11:20:08.960Z,17.2
2022-10-11T11:21:09.102Z,16.24
2022-10-11T11:22:09.243Z,16
2022-10-11T11:23:09.347Z,17.6
2022-10-11T11:24:09.457Z,18.4
2022-10-11T11:25:09.549Z,19.44
2022-10-11T11:26:09.700Z,19.28
2022-10-11T11:27:09.804Z,20.32
2022-10-11T11:28:10.007Z,21.44
2022-10-11T11:29:10.109Z,23.12
2022-10-11T11:30:10.225Z,23.92
2022-10-11T11:31:10.360Z,22.32
2022-10-11T11:32:10.460Z,21.04
2022-10-11T11:33:10.564Z,20.64
2022-10-11T11:34:10.718Z,20.32
2022-10-11T11:35:10.876Z,20.08
2022-10-11T11:36:11.023Z,20.08
2022-10-11T11:37:11.198Z,18.48
2022-10-11T11:38:11.921Z,18.48
2022-10-11T11:39:11.525Z,18.08
2022-10-11T11:40:11.698Z,19.28
2022-10-11T11:41:11.777Z,20.48
2022-10-11T11:42:11.879Z,19.44
2022-10-11T11:43:12.035Z,18
2022-10-11T11:44:12.136Z,17.2
2022-10-11T11:45:12.286Z,16.8
2022-10-11T11:46:12.437Z,16.24
2022-10-11T11:47:12.536Z,16.24
2022-10-11T11:48:12.644Z,16.24
2022-10-11T11:49:13.029Z,15.839999
2022-10-11T11:50:12.959Z,15.12
2022-10-11T11:51:13.044Z,15.04
2022-10-11T11:52:13.145Z,15.44
2022-10-11T11:53:13.251Z,15.52
2022-10-11T11:54:13.407Z,14.48
2022-10-11T11:55:13.522Z,14.24
2022-10-11T11:56:13.783Z,14.08
2022-10-11T11:57:13.883Z,13.92
2022-10-11T11:58:14.058Z,13.679999
2022-10-11T11:59:14.155Z,14.32
2022-10-11T12:00:14.275Z,14.639999
2022-10-11T12:01:14.413Z,14.639999
2022-10-11T12:02:14.587Z,14.639999
2022-10-11T12:03:14.619Z,14.639999
2022-10-11T12:04:14.776Z,14.639999
2022-10-11T12:05:14.932Z,14.719999
2022-10-11T12:06:15.020Z,14.639999
2022-10-11T12:07:16.557Z,14.08
2022-10-11T12:08:15.235Z,13.599999
2022-10-11T12:09:15.382Z,13.2
2022-10-11T12:10:15.530Z,13.679999
2022-10-11T12:11:15.630Z,13.599999
2022-10-11T12:12:15.739Z,13.599999
2022-10-11T12:13:16.080Z,13.679999
2022-10-11T12:14:16.198Z,13.679999
2022-10-11T12:15:16.349Z,13.679999
2022-10-11T12:16:16.491Z,13.44
2022-10-11T12:17:16.642Z,13.52
2022-10-11T12:18:16.804Z,14.08
2022-10-11T12:19:16.952Z,15.04
2022-10-11T12:20:17.099Z,14.639999
2022-10-11T12:21:17.265Z,14.08
2022-10-11T12:22:17.401Z,13.84
2022-10-11T12:23:19.897Z,13.92
2022-10-11T12:24:17.709Z,14.4
2022-10-11T12:25:18.782Z,15.52
2022-10-11T12:26:18.010Z,16
2022-10-11T12:27:18.172Z,17.12
2022-10-11T12:28:18.359Z,19.04
2022-10-11T12:29:18.485Z,18.88
2022-10-11T12:30:18.622Z,18.72
2022-10-11T12:31:18.765Z,18.48
2022-10-11T12:32:18.919Z,18.32
2022-10-11T12:33:19.066Z,18.64
2022-10-11T12:34:19.177Z,19.12
2022-10-11T12:35:19.336Z,20.24
2022-10-11T12:36:19.484Z,18.8
2022-10-11T12:37:19.684Z,18.72
2022-10-11T12:38:19.797Z,18.08
2022-10-11T12:39:19.917Z,19.2
2022-10-11T12:40:20.041Z,18.88
2022-10-11T12:41:20.146Z,18.64
2022-10-11T12:42:20.245Z,18.32
2022-10-11T12:43:20.401Z,18.64
2022-10-11T12:44:20.548Z,19.12
2022-10-11T12:45:20.709Z,17.92
2022-10-11T12:46:20.839Z,17.52
2022-10-11T12:47:20.994Z,17.76
2022-10-11T12:48:21.157Z,18.08
2022-10-11T12:49:21.251Z,18.08
2022-10-11T12:50:21.397Z,17.44
2022-10-11T12:51:21.558Z,17.04
2022-10-11T12:52:21.709Z,17.52
2022-10-11T12:53:21.831Z,17.52
2022-10-11T12:54:27.223Z,17.44